createdAt,value
2023-04-03T00:02:54.855Z,65.71
2023-04-03T00:07:56.651Z,65.52
2023-04-03T00:12:58.463Z,65.26
2023-04-03T00:18:00.313Z,65.06
2023-04-03T00:23:03.742Z,65.20
2023-04-03T00:28:06.104Z,65.11
2023-04-03T00:33:08.059Z,64.73
2023-04-03T00:38:09.930Z,64.79
2023-04-03T00:43:24.856Z,64.72
2023-04-03T00:48:29.350Z,64.62
2023-04-03T00:53:46.008Z,64.44
2023-04-03T00:59:05.302Z,64.13
2023-04-03T01:04:28.170Z,63.97
2023-04-03T01:09:31.858Z,63.92
2023-04-03T01:14:33.933Z,64.05
2023-04-03T01:19:40.169Z,64.01
2023-04-03T01:24:42.412Z,63.80
2023-04-03T01:29:47.459Z,63.75
2023-04-03T01:34:49.328Z,63.70
2023-04-03T01:39:51.440Z,63.59
2023-04-03T01:44:53.531Z,63.43
2023-04-03T01:49:55.574Z,63.02
2023-04-03T01:54:57.770Z,63.34
2023-04-03T01:59:59.932Z,63.64
2023-04-03T02:05:02.227Z,63.31
2023-04-03T02:10:04.260Z,63.49
2023-04-03T02:15:06.649Z,63.40
2023-04-03T02:20:09.289Z,63.19
2023-04-03T02:25:11.668Z,63.35
2023-04-03T02:30:13.898Z,63.02
2023-04-03T02:35:15.881Z,62.98
2023-04-03T02:40:18.556Z,62.97
2023-04-03T02:45:20.916Z,63.02
2023-04-03T02:50:23.432Z,63.05
2023-04-03T02:55:25.613Z,62.74
2023-04-03T03:00:31.016Z,62.60
2023-04-03T03:05:33.060Z,62.62
2023-04-03T03:10:35.838Z,62.64
2023-04-03T03:15:38.159Z,62.96
2023-04-03T03:20:40.118Z,62.73
2023-04-03T03:25:42.446Z,62.82
2023-04-03T03:30:44.301Z,62.76
2023-04-03T03:35:47.239Z,62.78
2023-04-03T03:40:51.004Z,62.48
2023-04-03T03:45:56.174Z,62.41
2023-04-03T03:50:59.689Z,62.39
2023-04-03T03:56:06.695Z,62.45
2023-04-03T04:01:11.039Z,62.42
2023-04-03T04:06:22.483Z,62.61
2023-04-03T04:11:26.320Z,62.52
2023-04-03T04:16:30.713Z,62.51
2023-04-03T04:21:37.618Z,62.66
2023-04-03T04:26:39.872Z,62.61
2023-04-03T04:31:45.524Z,62.72
2023-04-03T04:36:47.881Z,62.77
2023-04-03T04:41:50.439Z,62.74
2023-04-03T04:46:52.565Z,62.75
2023-04-03T04:51:56.247Z,62.43
2023-04-03T04:57:04.230Z,62.65
2023-04-03T05:02:06.801Z,62.93
2023-04-03T05:07:09.142Z,62.96
2023-04-03T05:12:12.665Z,63.07
2023-04-03T05:17:21.367Z,63.22
2023-04-03T05:22:27.787Z,63.02
2023-04-03T05:27:34.631Z,63.26
2023-04-03T05:32:37.551Z,63.30
2023-04-03T05:37:49.340Z,63.01
2023-04-03T05:42:53.165Z,62.97
2023-04-03T05:47:56.898Z,63.27
2023-04-03T05:53:00.494Z,63.49
2023-04-03T05:58:05.854Z,63.42
2023-04-03T06:03:08.801Z,63.64
2023-04-03T06:08:11.306Z,63.59
2023-04-03T06:13:13.650Z,63.71
2023-04-03T06:18:16.336Z,63.94
2023-04-03T06:23:18.699Z,63.80
2023-04-03T06:28:20.594Z,63.79
2023-04-03T06:33:22.496Z,63.67
2023-04-03T06:38:24.700Z,64.01
2023-04-03T06:43:27.213Z,64.15
2023-04-03T06:48:29.316Z,64.23
2023-04-03T06:53:31.199Z,63.95
2023-04-03T06:58:33.177Z,63.79
2023-04-03T07:03:36.548Z,64.28
2023-04-03T07:08:38.927Z,64.35
2023-04-03T07:13:41.048Z,64.38
2023-04-03T07:18:42.890Z,64.42
2023-04-03T07:23:44.946Z,64.55
2023-04-03T07:28:49.677Z,64.50
2023-04-03T07:33:51.635Z,64.75
2023-04-03T07:38:53.507Z,64.47
2023-04-03T07:43:57.732Z,64.60
2023-04-03T07:48:59.830Z,64.51
2023-04-03T07:54:01.997Z,64.55
2023-04-03T07:59:04.446Z,64.42
2023-04-03T08:04:07.989Z,64.49
2023-04-03T08:09:10.220Z,64.63
2023-04-03T08:14:18.040Z,64.73
2023-04-03T08:19:25.949Z,64.64
2023-04-03T08:24:28.716Z,64.30
2023-04-03T08:29:32.438Z,64.45
2023-04-03T08:34:36.105Z,64.63
2023-04-03T08:39:39.222Z,64.46
2023-04-03T08:45:17.100Z,64.36
2023-04-03T08:50:25.291Z,64.58
2023-04-03T08:55:32.286Z,64.42
2023-04-03T09:00:52.473Z,64.13
2023-04-03T09:05:57.347Z,64.15
2023-04-03T09:11:37.074Z,63.91
2023-04-03T09:16:48.600Z,64.15
2023-04-03T09:21:50.734Z,63.85
2023-04-03T09:26:59.768Z,64.20
2023-04-03T09:32:03.449Z,63.95
2023-04-03T09:37:09.862Z,63.90
2023-04-03T09:42:26.566Z,63.74
2023-04-03T09:47:31.465Z,63.56
2023-04-03T09:52:34.574Z,62.97
2023-04-03T09:57:36.720Z,62.48
2023-04-03T10:02:43.965Z,62.62
2023-04-03T10:07:54.504Z,62.62
2023-04-03T10:13:19.220Z,62.15
2023-04-03T10:18:32.553Z,62.23
2023-04-03T10:23:45.487Z,62.60
2023-04-03T10:29:03.172Z,62.18
2023-04-03T10:34:14.043Z,62.22
2023-04-03T10:39:46.785Z,61.93
2023-04-03T10:45:16.755Z,61.69
2023-04-03T10:50:54.081Z,61.44
2023-04-03T10:56:17.156Z,61.14
2023-04-03T11:01:29.759Z,60.71
2023-04-03T11:06:44.584Z,60.07
2023-04-03T11:11:48.924Z,59.57
2023-04-03T11:17:17.736Z,59.27
2023-04-03T11:22:40.186Z,58.73
2023-04-03T11:27:57.766Z,58.44
2023-04-03T11:33:21.317Z,58.09
2023-04-03T11:38:46.355Z,56.60
2023-04-03T11:43:58.648Z,57.05
2023-04-03T11:49:00.591Z,56.86
2023-04-03T11:54:44.898Z,56.31
2023-04-03T11:59:47.576Z,56.83
2023-04-03T12:05:27.264Z,55.50
2023-04-03T12:10:32.580Z,55.23
2023-04-03T12:15:38.059Z,54.85
2023-04-03T12:20:53.240Z,54.93
2023-04-03T12:26:01.618Z,55.22
2023-04-03T12:31:08.149Z,55.64
2023-04-03T12:36:39.136Z,55.28
2023-04-03T12:41:56.949Z,55.60
2023-04-03T12:47:01.575Z,55.35
2023-04-03T12:52:07.360Z,55.22
2023-04-03T12:57:21.700Z,54.74
2023-04-03T13:02:32.356Z,54.17
2023-04-03T13:07:39.822Z,54.02
2023-04-03T13:12:51.829Z,53.79
2023-04-03T13:17:55.298Z,54.03
2023-04-03T13:23:02.456Z,53.82
2023-04-03T13:28:13.798Z,53.85
2023-04-03T13:33:24.007Z,53.75
2023-04-03T13:38:30.500Z,54.27
2023-04-03T13:43:36.172Z,54.09
2023-04-03T13:48:41.923Z,53.88
2023-04-03T13:53:58.624Z,53.58
2023-04-03T13:59:17.376Z,53.54
2023-04-03T14:04:28.086Z,53.50
2023-04-03T14:09:30.211Z,53.55
2023-04-03T14:14:34.954Z,53.62
2023-04-03T14:19:37.682Z,53.71
2023-04-03T14:24:41.843Z,53.67
2023-04-03T14:29:48.406Z,53.46
2023-04-03T14:34:52.283Z,53.11
2023-04-03T14:39:54.851Z,52.75
2023-04-03T14:45:01.433Z,52.94
2023-04-03T14:50:05.614Z,53.38
2023-04-03T14:55:08.205Z,52.97
2023-04-03T15:00:18.925Z,52.42
2023-04-03T15:05:22.075Z,52.45
2023-04-03T15:10:29.295Z,52.73
2023-04-03T15:15:31.380Z,52.72
2023-04-03T15:20:34.875Z,52.79
2023-04-03T15:25:36.727Z,52.69
2023-04-03T15:30:41.615Z,52.62
2023-04-03T15:35:44.265Z,52.53
2023-04-03T15:40:48.002Z,52.59
2023-04-03T15:45:51.647Z,52.32
2023-04-03T15:50:54.075Z,52.47
2023-04-03T15:55:56.288Z,52.25
2023-04-03T16:00:58.198Z,52.27
2023-04-03T16:06:00.122Z,52.52
2023-04-03T16:11:02.040Z,52.17
2023-04-03T16:16:06.196Z,52.39
2023-04-03T16:21:10.490Z,52.04
2023-04-03T16:26:13.057Z,52.07
2023-04-03T16:31:15.246Z,52.20
2023-04-03T16:36:17.329Z,52.12
2023-04-03T16:41:19.294Z,52.16
2023-04-03T16:46:22.323Z,52.22
2023-04-03T16:51:24.591Z,52.11
2023-04-03T16:56:29.691Z,52.08
2023-04-03T17:01:31.758Z,52.42
2023-04-03T17:06:33.917Z,52.11
2023-04-03T17:16:43.654Z,51.94
2023-04-03T17:21:46.509Z,51.75
2023-04-03T17:26:48.524Z,52.13
2023-04-03T17:31:50.826Z,51.99
2023-04-03T17:36:52.881Z,52.42
2023-04-03T17:41:55.263Z,52.29
2023-04-03T17:46:57.188Z,52.32
2023-04-03T17:51:59.485Z,52.30
2023-04-03T17:57:03.721Z,52.22
2023-04-03T18:02:06.062Z,52.14
2023-04-03T18:07:10.214Z,52.43
2023-04-03T18:12:12.425Z,52.46
2023-04-03T18:17:16.135Z,52.67
2023-04-03T18:22:21.939Z,52.73
2023-04-03T18:27:27.731Z,52.86
2023-04-03T18:32:29.632Z,52.82
2023-04-03T18:37:31.930Z,52.83
2023-04-03T18:42:37.135Z,53.04
2023-04-03T18:47:39.540Z,53.39
2023-04-03T18:52:42.475Z,53.40
2023-04-03T18:57:44.846Z,53.32
2023-04-03T19:02:46.898Z,53.38
2023-04-03T19:07:49.848Z,53.03
2023-04-03T19:12:52.343Z,53.17
2023-04-03T19:17:54.955Z,53.16
2023-04-03T19:22:57.985Z,53.17
2023-04-03T19:28:02.732Z,53.04
2023-04-03T19:33:04.681Z,52.99
2023-04-03T19:38:06.541Z,53.14
2023-04-03T19:43:09.737Z,53.34
2023-04-03T19:48:12.172Z,53.19
2023-04-03T19:53:18.869Z,53.22
2023-04-03T19:58:20.926Z,53.07
2023-04-03T20:03:23.690Z,53.21
2023-04-03T20:08:28.446Z,53.33
2023-04-03T20:13:30.575Z,53.57
2023-04-03T20:18:33.296Z,53.52
2023-04-03T20:23:37.335Z,53.60
2023-04-03T20:28:39.142Z,53.50
2023-04-03T20:33:41.070Z,53.66
2023-04-03T20:38:43.166Z,53.75
2023-04-03T20:43:46.417Z,53.52
2023-04-03T20:48:48.399Z,53.83
2023-04-03T20:53:50.342Z,53.88
2023-04-03T20:58:52.620Z,54.05
2023-04-03T21:04:04.093Z,54.17
2023-04-03T21:09:44.945Z,54.57
2023-04-03T21:15:24.157Z,54.47
2023-04-03T21:20:26.167Z,54.40
2023-04-03T21:25:28.542Z,54.45
2023-04-03T21:30:31.598Z,54.67
2023-04-03T21:35:33.710Z,55.14
2023-04-03T21:40:35.712Z,55.23
2023-04-03T21:45:39.353Z,55.46
2023-04-03T21:50:41.418Z,55.47
2023-04-03T21:55:54.577Z,55.59
2023-04-03T22:00:57.236Z,55.83
2023-04-03T22:05:59.352Z,56.33
2023-04-03T22:11:03.595Z,56.23
2023-04-03T22:16:06.152Z,56.35
2023-04-03T22:21:08.443Z,56.65
2023-04-03T22:26:12.634Z,56.60
2023-04-03T22:31:17.321Z,56.69
2023-04-03T22:36:19.652Z,56.95
2023-04-03T22:41:22.287Z,57.10
2023-04-03T22:46:26.124Z,57.16
2023-04-03T22:51:28.639Z,57.23
2023-04-03T22:56:31.906Z,57.46
2023-04-03T23:01:34.474Z,57.40
2023-04-03T23:06:38.161Z,57.54
2023-04-03T23:11:40.005Z,57.80
2023-04-03T23:16:42.448Z,57.83
2023-04-03T23:21:45.969Z,58.02
2023-04-03T23:26:47.822Z,57.86
2023-04-03T23:31:49.936Z,58.16
2023-04-03T23:36:51.963Z,58.02
2023-04-03T23:41:54.881Z,58.18
2023-04-03T23:46:58.170Z,58.23
2023-04-03T23:52:00.896Z,58.36
2023-04-03T23:57:02.766Z,58.51
